createdAt,value
2023-02-04T00:01:41.538Z,102624.66
2023-02-04T00:04:43.069Z,102630.91
2023-02-04T00:07:44.722Z,102628.34
2023-02-04T00:10:50.418Z,102641.56
2023-02-04T00:13:51.995Z,102638.97
2023-02-04T00:16:53.556Z,102635.47
2023-02-04T00:19:55.139Z,102640.81
2023-02-04T00:22:57.262Z,102651.41
2023-02-04T00:25:58.908Z,102668.16
2023-02-04T00:29:00.454Z,102670.88
2023-02-04T00:32:02.141Z,102676.22
2023-02-04T00:35:04.799Z,102678.00
2023-02-04T00:38:07.107Z,102683.31
2023-02-04T00:41:08.675Z,102693.06
2023-02-04T00:44:11.011Z,102688.72
2023-02-04T00:47:12.680Z,102693.22
2023-02-04T00:50:14.357Z,102712.59
2023-02-04T00:53:15.948Z,102721.44
2023-02-04T00:56:17.512Z,102719.75
2023-02-04T00:59:19.148Z,102723.31
2023-02-04T01:02:22.529Z,102731.25
2023-02-04T01:05:24.052Z,102746.22
2023-02-04T01:08:25.645Z,102748.91
2023-02-04T01:11:28.436Z,102752.47
2023-02-04T01:14:30.182Z,102749.00
2023-02-04T01:17:31.809Z,102766.63
2023-02-04T01:20:33.509Z,102765.81
2023-02-04T01:23:35.046Z,102780.78
2023-02-04T01:26:36.636Z,102791.38
2023-02-04T01:29:38.196Z,102803.69
2023-02-04T01:32:39.929Z,102806.41
2023-02-04T01:35:41.512Z,102815.22
2023-02-04T01:38:43.073Z,102819.63
2023-02-04T01:41:44.670Z,102827.56
2023-02-04T01:44:46.754Z,102836.38
2023-02-04T01:47:48.718Z,102824.09
2023-02-04T01:50:53.422Z,102837.28
2023-02-04T01:53:55.452Z,102837.31
2023-02-04T01:56:57.270Z,102843.47
2023-02-04T01:59:58.959Z,102846.13
2023-02-04T02:03:01.001Z,102854.06
2023-02-04T02:06:02.749Z,102861.97
2023-02-04T02:09:04.658Z,102882.16
2023-02-04T02:12:06.534Z,102893.59
2023-02-04T02:15:09.557Z,102898.03
2023-02-04T02:18:12.164Z,102910.31
2023-02-04T02:21:16.600Z,102913.81
2023-02-04T02:24:32.489Z,102921.72
2023-02-04T02:27:34.084Z,102931.41
2023-02-04T02:30:36.131Z,102939.34
2023-02-04T02:33:37.868Z,102954.25
2023-02-04T02:36:39.495Z,102961.28
2023-02-04T02:39:44.580Z,102954.25
2023-02-04T02:42:50.600Z,102954.28
2023-02-04T02:45:53.001Z,102957.78
2023-02-04T02:48:54.907Z,102964.81
2023-02-04T02:51:56.516Z,102960.41
2023-02-04T02:54:58.121Z,102965.66
2023-02-04T02:57:59.710Z,102962.19
2023-02-04T03:01:04.457Z,102953.41
2023-02-04T03:04:06.165Z,102961.31
2023-02-04T03:07:08.412Z,102965.69
2023-02-04T03:10:10.308Z,102969.19
2023-02-04T03:13:14.612Z,102975.34
2023-02-04T03:16:16.290Z,102968.31
2023-02-04T03:19:17.905Z,102961.28
2023-02-04T03:22:19.788Z,102973.53
2023-02-04T03:25:24.497Z,102980.53
2023-02-04T03:28:26.330Z,102986.66
2023-02-04T03:31:28.083Z,102998.91
2023-02-04T03:34:29.732Z,102999.78
2023-02-04T03:37:31.354Z,103005.94
2023-02-04T03:40:33.265Z,103011.16
2023-02-04T03:43:35.153Z,103023.44
2023-02-04T03:46:36.779Z,103025.19
2023-02-04T03:49:38.452Z,103036.53
2023-02-04T03:52:40.069Z,103046.19
2023-02-04T03:55:41.669Z,103050.53
2023-02-04T03:58:43.233Z,103040.88
2023-02-04T04:01:44.879Z,103056.59
2023-02-04T04:04:46.520Z,103054.81
2023-02-04T04:07:48.118Z,103053.94
2023-02-04T04:10:49.702Z,103062.63
2023-02-04T04:13:51.832Z,103069.63
2023-02-04T04:16:53.393Z,103078.38
2023-02-04T04:19:54.976Z,103088.00
2023-02-04T04:22:56.606Z,103096.75
2023-02-04T04:25:58.259Z,103115.09
2023-02-04T04:28:59.849Z,103112.41
2023-02-04T04:32:01.491Z,103123.78
2023-02-04T04:35:03.626Z,103128.09
2023-02-04T04:38:05.209Z,103128.97
2023-02-04T04:41:06.800Z,103130.66
2023-02-04T04:44:08.404Z,103138.50
2023-02-04T04:47:09.968Z,103134.97
2023-02-04T04:50:11.629Z,103148.03
2023-02-04T04:53:13.211Z,103162.00
2023-02-04T04:56:14.944Z,103154.97
2023-02-04T04:59:16.489Z,103153.19
2023-02-04T05:02:18.159Z,103161.91
2023-02-04T05:05:19.795Z,103171.50
2023-02-04T05:08:21.502Z,103177.59
2023-02-04T05:11:23.100Z,103184.56
2023-02-04T05:14:24.729Z,103189.81
2023-02-04T05:17:28.452Z,103183.63
2023-02-04T05:20:30.667Z,103188.00
2023-02-04T05:23:32.757Z,103185.38
2023-02-04T05:26:34.449Z,103194.97
2023-02-04T05:29:38.015Z,103197.59
2023-02-04T05:32:39.689Z,103194.94
2023-02-04T05:35:44.292Z,103196.66
2023-02-04T05:38:45.846Z,103187.03
2023-02-04T05:41:47.411Z,103180.88
2023-02-04T05:44:49.080Z,103186.09
2023-02-04T05:47:50.643Z,103204.66
2023-02-04T05:50:52.253Z,103218.63
2023-02-04T05:53:53.805Z,103227.38
2023-02-04T05:56:55.432Z,103230.81
2023-02-04T05:59:57.023Z,103220.25
2023-02-04T06:02:58.616Z,103237.69
2023-02-04T06:06:00.388Z,103237.66
2023-02-04T06:09:02.327Z,103239.34
2023-02-04T06:12:04.263Z,103257.69
2023-02-04T06:15:06.522Z,103260.25
2023-02-04T06:18:08.201Z,103261.09
2023-02-04T06:21:09.847Z,103269.84
2023-02-04T06:24:11.514Z,103273.31
2023-02-04T06:27:13.092Z,103267.19
2023-02-04T06:30:15.707Z,103265.44
2023-02-04T06:33:17.412Z,103258.44
2023-02-04T06:36:19.030Z,103271.50
2023-02-04T06:39:21.144Z,103278.44
2023-02-04T06:42:22.737Z,103288.84
2023-02-04T06:45:24.299Z,103293.13
2023-02-04T06:48:25.918Z,103300.97
2023-02-04T06:51:27.810Z,103316.09
2023-02-04T06:54:29.361Z,103316.09
2023-02-04T06:57:30.925Z,103321.34
2023-02-04T07:00:32.883Z,103330.06
2023-02-04T07:03:34.910Z,103333.53
2023-02-04T07:06:36.493Z,103333.47
2023-02-04T07:09:38.076Z,103331.63
2023-02-04T07:12:39.751Z,103330.66
2023-02-04T07:15:41.343Z,103332.28
2023-02-04T07:18:42.944Z,103334.81
2023-02-04T07:21:44.552Z,103340.84
2023-02-04T07:24:46.289Z,103345.13
2023-02-04T07:27:47.985Z,103355.59
2023-02-04T07:30:52.355Z,103360.84
2023-02-04T07:33:53.993Z,103364.41
2023-02-04T07:36:55.620Z,103360.03
2023-02-04T07:39:57.188Z,103353.94
2023-02-04T07:42:58.810Z,103367.88
2023-02-04T07:46:00.375Z,103368.72
2023-02-04T07:49:02.114Z,103380.31
2023-02-04T07:52:03.883Z,103378.69
2023-02-04T07:55:06.677Z,103377.91
2023-02-04T07:58:08.314Z,103379.75
2023-02-04T08:01:09.913Z,103388.56
2023-02-04T08:04:11.504Z,103391.38
2023-02-04T08:07:13.054Z,103399.44
2023-02-04T08:10:14.707Z,103394.34
2023-02-04T08:13:16.292Z,103397.09
2023-02-04T08:16:17.977Z,103411.19
2023-02-04T08:19:21.459Z,103408.59
2023-02-04T08:22:23.036Z,103413.84
2023-02-04T08:25:24.650Z,103419.16
2023-02-04T08:28:26.223Z,103426.19
2023-02-04T08:31:27.879Z,103426.28
2023-02-04T08:34:29.675Z,103428.06
2023-02-04T08:37:31.423Z,103435.94
2023-02-04T08:40:33.280Z,103436.78
2023-02-04T08:43:35.164Z,103446.44
2023-02-04T08:46:36.848Z,103447.34
2023-02-04T08:49:38.510Z,103473.69
2023-02-04T08:52:40.117Z,103474.63
2023-02-04T08:55:41.666Z,103472.09
2023-02-04T08:58:44.341Z,103477.38
2023-02-04T09:01:51.051Z,103480.00
2023-02-04T09:04:52.927Z,103491.44
2023-02-04T09:07:54.599Z,103492.31
2023-02-04T09:10:58.196Z,103490.59
2023-02-04T09:13:59.818Z,103498.47
2023-02-04T09:17:01.536Z,103498.53
2023-02-04T09:20:05.887Z,103497.69
2023-02-04T09:23:09.991Z,103498.63
2023-02-04T09:26:11.590Z,103504.81
2023-02-04T09:29:14.453Z,103504.00
2023-02-04T09:32:16.036Z,103507.53
2023-02-04T09:35:17.590Z,103496.13
2023-02-04T09:38:19.167Z,103492.66
2023-02-04T09:41:21.075Z,103505.00
2023-02-04T09:44:26.462Z,103496.28
2023-02-04T09:47:28.104Z,103489.38
2023-02-04T09:50:32.485Z,103492.09
2023-02-04T09:53:36.676Z,103502.75
2023-02-04T09:56:38.438Z,103513.38
2023-02-04T09:59:40.449Z,103521.31
2023-02-04T10:02:42.151Z,103526.63
2023-02-04T10:05:45.817Z,103530.09
2023-02-04T10:08:50.352Z,103533.63
2023-02-04T10:11:52.072Z,103535.44
2023-02-04T10:14:53.652Z,103538.16
2023-02-04T10:18:01.726Z,103546.13
2023-02-04T10:21:19.003Z,103539.22
2023-02-04T10:24:26.900Z,103537.53
2023-02-04T10:27:28.499Z,103551.63
2023-02-04T10:30:37.813Z,103549.06
2023-02-04T10:33:39.842Z,103552.66
2023-02-04T10:36:47.232Z,103553.59
2023-02-04T10:39:49.942Z,103545.78
2023-02-04T10:42:53.209Z,103550.22
2023-02-04T10:46:04.666Z,103549.41
2023-02-04T10:49:20.558Z,103554.75
2023-02-04T10:52:27.186Z,103547.78
2023-02-04T10:55:28.828Z,103543.41
2023-02-04T10:58:31.717Z,103539.91
2023-02-04T11:01:33.358Z,103546.94
2023-02-04T11:04:34.909Z,103543.44
2023-02-04T11:07:36.489Z,103552.22
2023-02-04T11:10:38.086Z,103546.09
2023-02-04T11:13:57.703Z,103550.47
2023-02-04T11:17:01.955Z,103551.38
2023-02-04T11:20:17.395Z,103556.69
2023-02-04T11:23:32.390Z,103555.88
2023-02-04T11:26:47.645Z,103554.13
2023-02-04T11:29:49.591Z,103546.25
2023-02-04T11:33:05.785Z,103548.88
2023-02-04T11:36:13.444Z,103548.88
2023-02-04T11:39:17.700Z,103541.84
2023-02-04T11:42:23.235Z,103544.50
2023-02-04T11:45:29.031Z,103540.13
2023-02-04T11:48:32.187Z,103549.81
2023-02-04T11:51:34.757Z,103553.38
2023-02-04T11:54:36.698Z,103556.03
2023-02-04T11:57:40.829Z,103544.59
2023-02-04T12:00:42.705Z,103552.50
2023-02-04T12:03:49.430Z,103555.13
2023-02-04T12:06:59.712Z,103551.63
2023-02-04T12:10:17.145Z,103562.19
2023-02-04T12:13:24.191Z,103553.38
2023-02-04T12:16:26.339Z,103559.53
2023-02-04T12:19:28.401Z,103558.66
2023-02-04T12:22:30.037Z,103559.53
2023-02-04T12:25:32.368Z,103562.19
2023-02-04T12:28:34.844Z,103560.44
2023-02-04T12:31:36.550Z,103560.44
2023-02-04T12:34:38.245Z,103559.53
2023-02-04T12:37:39.806Z,103559.53
2023-02-04T12:40:41.404Z,103564.84
2023-02-04T12:43:42.938Z,103567.47
2023-02-04T12:46:44.657Z,103567.44
2023-02-04T12:49:46.746Z,103560.41
2023-02-04T12:52:56.530Z,103564.81
2023-02-04T12:55:58.115Z,103561.28
2023-02-04T12:58:59.647Z,103561.28
2023-02-04T13:02:01.279Z,103570.13
2023-02-04T13:05:02.903Z,103565.72
2023-02-04T13:08:04.764Z,103571.88
2023-02-04T13:11:06.325Z,103572.75
2023-02-04T13:14:07.920Z,103571.00
2023-02-04T13:17:10.305Z,103576.28
2023-02-04T13:20:12.875Z,103591.25
2023-02-04T13:23:14.500Z,103584.19
2023-02-04T13:26:16.032Z,103587.72
2023-02-04T13:29:18.040Z,103586.81
2023-02-04T13:32:19.615Z,103581.53
2023-02-04T13:35:21.252Z,103564.81
2023-02-04T13:38:22.951Z,103570.09
2023-02-04T13:41:24.819Z,103581.53
2023-02-04T13:44:26.489Z,103578.88
2023-02-04T13:47:28.141Z,103564.81
2023-02-04T13:50:30.053Z,103564.81
2023-02-04T13:53:31.858Z,103589.47
2023-02-04T13:56:33.465Z,103578.91
2023-02-04T13:59:35.048Z,103582.41
2023-02-04T14:02:36.663Z,103583.28
2023-02-04T14:05:38.268Z,103588.56
2023-02-04T14:08:39.810Z,103585.94
2023-02-04T14:11:41.440Z,103585.94
2023-02-04T14:14:43.076Z,103593.84
2023-02-04T14:17:44.937Z,103584.19
2023-02-04T14:20:46.694Z,103594.75
2023-02-04T14:23:48.262Z,103596.50
2023-02-04T14:26:50.758Z,103595.63
2023-02-04T14:29:52.422Z,103600.00
2023-02-04T14:32:54.801Z,103596.47
2023-02-04T14:35:56.548Z,103590.31
2023-02-04T14:38:58.161Z,103585.91
2023-02-04T14:41:59.789Z,103588.53
2023-02-04T14:45:05.278Z,103600.81
2023-02-04T14:48:08.267Z,103595.56
2023-02-04T14:51:09.896Z,103596.44
2023-02-04T14:54:11.564Z,103595.53
2023-02-04T14:57:13.851Z,103592.88
2023-02-04T15:00:16.124Z,103601.66
2023-02-04T15:03:17.695Z,103599.88
2023-02-04T15:06:19.788Z,103598.97
2023-02-04T15:09:21.399Z,103599.84
2023-02-04T15:12:22.980Z,103602.50
2023-02-04T15:15:24.564Z,103600.75
2023-02-04T15:18:26.148Z,103604.28
2023-02-04T15:21:27.785Z,103604.25
2023-02-04T15:24:30.397Z,103609.50
2023-02-04T15:27:32.090Z,103596.31
2023-02-04T15:30:34.147Z,103599.81
2023-02-04T15:33:35.873Z,103602.44
2023-02-04T15:36:37.712Z,103604.19
2023-02-04T15:39:40.546Z,103605.94
2023-02-04T15:42:43.250Z,103612.94
2023-02-04T15:45:44.841Z,103608.53
2023-02-04T15:48:46.417Z,103612.03
2023-02-04T15:51:47.999Z,103603.22
2023-02-04T15:54:49.685Z,103604.13
2023-02-04T15:57:51.301Z,103605.88
2023-02-04T16:00:52.871Z,103602.34
2023-02-04T16:03:56.578Z,103596.19
2023-02-04T16:06:59.407Z,103596.19
2023-02-04T16:10:00.985Z,103599.72
2023-02-04T16:13:02.560Z,103602.34
2023-02-04T16:16:04.430Z,103596.22
2023-02-04T16:19:06.024Z,103596.22
2023-02-04T16:22:08.134Z,103601.50
2023-02-04T16:25:10.507Z,103598.00
2023-02-04T16:28:12.203Z,103594.44
2023-02-04T16:31:15.099Z,103605.00
2023-02-04T16:34:16.763Z,103613.78
2023-02-04T16:37:19.042Z,103612.88
2023-02-04T16:40:20.810Z,103617.31
2023-02-04T16:43:22.990Z,103617.31
2023-02-04T16:46:24.646Z,103619.03
2023-02-04T16:49:26.344Z,103619.06
2023-02-04T16:52:31.846Z,103618.19
2023-02-04T16:55:33.734Z,103625.19
2023-02-04T16:58:35.472Z,103633.97
2023-02-04T17:01:37.083Z,103635.75
2023-02-04T17:04:38.713Z,103630.47
2023-02-04T17:07:40.356Z,103633.97
2023-02-04T17:11:00.796Z,103641.88
2023-02-04T17:14:05.302Z,103646.25
2023-02-04T17:17:06.895Z,103647.97
2023-02-04T17:20:08.907Z,103646.22
2023-02-04T17:23:10.944Z,103639.19
2023-02-04T17:26:12.580Z,103632.16
2023-02-04T17:29:19.213Z,103633.00
2023-02-04T17:32:20.781Z,103638.28
2023-02-04T17:35:22.364Z,103635.56
2023-02-04T17:38:26.921Z,103636.38
2023-02-04T17:41:29.788Z,103635.53
2023-02-04T17:44:32.314Z,103636.38
2023-02-04T17:47:33.908Z,103625.84
2023-02-04T17:53:43.723Z,103633.56
2023-02-04T17:56:45.296Z,103634.38
2023-02-04T17:59:48.606Z,103637.03
2023-02-04T18:02:51.493Z,103630.84
2023-02-04T18:05:56.178Z,103633.47
2023-02-04T18:09:02.154Z,103639.59
2023-02-04T18:12:13.428Z,103646.63
2023-02-04T18:15:32.387Z,103646.63
2023-02-04T18:18:39.132Z,103656.25
2023-02-04T18:21:40.781Z,103646.56
2023-02-04T18:24:45.023Z,103646.50
2023-02-04T18:27:46.786Z,103648.19
2023-02-04T18:30:53.028Z,103658.69
2023-02-04T18:33:55.575Z,103657.81
2023-02-04T18:36:57.143Z,103656.03
2023-02-04T18:40:11.065Z,103659.53
2023-02-04T18:43:24.658Z,103653.31
2023-02-04T18:46:29.402Z,103655.00
2023-02-04T18:49:40.196Z,103657.56
2023-02-04T18:52:43.718Z,103661.00
2023-02-04T18:55:50.165Z,103654.84
2023-02-04T18:58:52.000Z,103654.81
2023-02-04T19:01:53.966Z,103655.69
2023-02-04T19:05:12.410Z,103655.66
2023-02-04T19:08:22.822Z,103665.22
2023-02-04T19:11:35.065Z,103664.28
2023-02-04T19:14:43.285Z,103657.19
2023-02-04T19:17:44.841Z,103650.13
2023-02-04T19:20:46.455Z,103648.31
2023-02-04T19:23:50.183Z,103643.81
2023-02-04T19:26:57.787Z,103642.00
2023-02-04T19:30:01.463Z,103637.53
2023-02-04T19:33:15.724Z,103641.84
2023-02-04T19:36:33.970Z,103645.28
2023-02-04T19:39:40.409Z,103649.56
2023-02-04T19:42:43.106Z,103645.97
2023-02-04T19:45:46.957Z,103649.41
2023-02-04T19:48:48.623Z,103640.56
2023-02-04T19:51:58.342Z,103641.34
2023-02-04T19:55:14.950Z,103639.50
2023-02-04T19:58:25.088Z,103638.59
2023-02-04T20:01:26.835Z,103630.63
2023-02-04T20:04:36.456Z,103626.16
2023-02-04T20:07:38.304Z,103634.72
2023-02-04T20:10:39.863Z,103621.41
2023-02-04T20:13:41.389Z,103625.53
2023-02-04T20:17:03.642Z,103621.78
2023-02-04T20:20:23.558Z,103626.81
2023-02-04T20:23:29.097Z,103626.81
2023-02-04T20:26:31.796Z,103611.06
2023-02-04T20:29:34.614Z,103617.16
2023-02-04T20:32:45.025Z,103613.63
2023-02-04T20:35:52.433Z,103621.44
2023-02-04T20:39:02.134Z,103618.81
2023-02-04T20:42:34.803Z,103610.94
2023-02-04T20:45:40.494Z,103613.56
2023-02-04T20:48:43.582Z,103604.81
2023-02-04T20:51:45.112Z,103607.38
2023-02-04T20:54:46.730Z,103602.09
2023-02-04T20:57:48.556Z,103609.06
2023-02-04T21:00:56.072Z,103616.06
2023-02-04T21:03:58.128Z,103615.16
2023-02-04T21:07:03.929Z,103611.66
2023-02-04T21:10:05.792Z,103605.63
2023-02-04T21:13:07.335Z,103604.75
2023-02-04T21:16:09.193Z,103599.44
2023-02-04T21:19:10.800Z,103591.47
2023-02-04T21:22:12.457Z,103598.38
2023-02-04T21:25:14.059Z,103602.66
2023-02-04T21:28:15.678Z,103598.22
2023-02-04T21:31:17.362Z,103601.63
2023-02-04T21:34:18.981Z,103597.19
2023-02-04T21:37:20.589Z,103601.59
2023-02-04T21:40:22.447Z,103598.06
2023-02-04T21:43:24.003Z,103593.69
2023-02-04T21:46:25.579Z,103593.69
2023-02-04T21:49:27.164Z,103591.00
2023-02-04T21:52:28.671Z,103585.75
2023-02-04T21:55:31.826Z,103588.44
2023-02-04T21:58:33.796Z,103588.50
2023-02-04T22:01:35.747Z,103588.50
2023-02-04T22:04:37.310Z,103578.00
2023-02-04T22:07:39.746Z,103583.31
2023-02-04T22:10:41.527Z,103589.47
2023-02-04T22:13:44.794Z,103589.47
2023-02-04T22:16:47.250Z,103595.56
2023-02-04T22:19:48.993Z,103594.63
2023-02-04T22:22:50.578Z,103604.16
2023-02-04T22:25:52.153Z,103597.16
2023-02-04T22:28:53.678Z,103588.34
2023-02-04T22:31:56.092Z,103586.50
2023-02-04T22:34:58.146Z,103587.22
2023-02-04T22:38:01.975Z,103576.66
2023-02-04T22:41:03.772Z,103572.09
2023-02-04T22:44:05.336Z,103576.34
2023-02-04T22:47:07.024Z,103566.69
2023-02-04T22:50:09.088Z,103579.81
2023-02-04T22:53:10.693Z,103569.38
2023-02-04T22:56:12.279Z,103573.75
2023-02-04T22:59:13.803Z,103577.25
2023-02-04T23:02:15.390Z,103569.34
2023-02-04T23:05:17.043Z,103566.63
2023-02-04T23:08:18.783Z,103555.88
2023-02-04T23:11:23.190Z,103563.56
2023-02-04T23:14:25.087Z,103554.03
2023-02-04T23:17:26.659Z,103560.66
2023-02-04T23:20:28.249Z,103552.78
2023-02-04T23:23:31.570Z,103560.63
2023-02-04T23:26:33.250Z,103559.66
2023-02-04T23:29:37.619Z,103568.34
2023-02-04T23:32:39.211Z,103560.38
2023-02-04T23:35:40.811Z,103556.88
2023-02-04T23:38:42.379Z,103562.03
2023-02-04T23:41:43.982Z,103552.38
2023-02-04T23:44:45.551Z,103555.78
2023-02-04T23:47:47.075Z,103543.47
2023-02-04T23:50:48.761Z,103532.81
2023-02-04T23:53:50.307Z,103525.75
2023-02-04T23:56:52.555Z,103523.81
2023-02-04T23:59:54.198Z,103504.53
